createdAt,value
2023-02-21T00:01:13.524Z,91.74
2023-02-21T00:03:59.787Z,93.29
2023-02-21T00:06:45.967Z,91.69
2023-02-21T00:09:32.224Z,91.37
2023-02-21T00:12:18.436Z,89.98
2023-02-21T00:15:04.703Z,91.72
2023-02-21T00:17:50.872Z,89.80
2023-02-21T00:20:37.512Z,88.80
2023-02-21T00:23:23.726Z,90.07
2023-02-21T00:26:09.820Z,89.82
2023-02-21T00:28:56.034Z,89.51
2023-02-21T00:31:42.284Z,88.49
2023-02-21T00:34:28.495Z,88.63
2023-02-21T00:37:14.566Z,89.73
2023-02-21T00:40:00.914Z,89.24
2023-02-21T00:42:47.034Z,87.46
2023-02-21T00:45:33.400Z,88.87
2023-02-21T00:48:19.734Z,90.40
2023-02-21T00:51:06.360Z,89.36
2023-02-21T00:53:52.511Z,89.35
2023-02-21T00:56:39.060Z,88.04
2023-02-21T00:59:25.309Z,88.84
2023-02-21T01:02:11.590Z,89.24
2023-02-21T01:04:57.845Z,89.98
2023-02-21T01:07:44.100Z,91.09
2023-02-21T01:10:30.226Z,90.22
2023-02-21T01:13:16.439Z,89.51
2023-02-21T01:16:03.597Z,89.14
2023-02-21T01:18:49.889Z,89.39
2023-02-21T01:21:37.978Z,89.39
2023-02-21T01:24:27.557Z,89.75
2023-02-21T01:27:13.611Z,89.28
2023-02-21T01:29:59.847Z,87.78
2023-02-21T01:32:45.984Z,88.64
2023-02-21T01:35:32.319Z,87.92
2023-02-21T01:38:18.946Z,87.26
2023-02-21T01:41:08.361Z,88.15
2023-02-21T01:43:54.745Z,87.38
2023-02-21T01:46:41.030Z,87.54
2023-02-21T01:49:35.872Z,87.37
2023-02-21T01:52:24.370Z,87.64
2023-02-21T01:55:14.027Z,88.57
2023-02-21T01:58:04.694Z,88.52
2023-02-21T02:00:54.597Z,88.30
2023-02-21T02:03:40.809Z,87.21
2023-02-21T02:06:33.083Z,87.69
2023-02-21T02:09:36.267Z,86.60
2023-02-21T02:12:34.892Z,87.24
2023-02-21T02:15:18.674Z,87.28
2023-02-21T02:18:06.352Z,87.36
2023-02-21T02:20:49.026Z,86.34
2023-02-21T02:23:52.924Z,86.12
2023-02-21T02:27:04.512Z,86.29
2023-02-21T02:30:22.187Z,87.00
2023-02-21T02:33:31.841Z,86.38
2023-02-21T02:36:44.412Z,86.80
2023-02-21T02:39:44.306Z,87.22
2023-02-21T02:42:38.833Z,86.04
2023-02-21T02:45:20.906Z,85.60
2023-02-21T02:47:57.164Z,86.36
2023-02-21T02:50:27.799Z,85.22
2023-02-21T02:53:01.389Z,85.77
2023-02-21T02:55:55.762Z,85.03
2023-02-21T02:58:29.464Z,86.08
2023-02-21T03:01:35.848Z,84.88
2023-02-21T03:05:06.701Z,85.82
2023-02-21T03:08:38.988Z,85.33
2023-02-21T03:11:22.889Z,86.58
2023-02-21T03:13:57.920Z,85.67
2023-02-21T03:16:50.634Z,85.77
2023-02-21T03:19:25.264Z,85.16
2023-02-21T03:21:59.757Z,85.26
2023-02-21T03:24:28.355Z,84.94
2023-02-21T03:27:02.282Z,85.41
2023-02-21T03:29:56.309Z,86.20
2023-02-21T03:32:36.200Z,84.05
2023-02-21T03:35:06.114Z,83.44
2023-02-21T03:37:40.638Z,83.54
2023-02-21T03:40:25.850Z,84.48
2023-02-21T03:42:56.432Z,84.28
2023-02-21T03:45:25.296Z,83.82
2023-02-21T03:48:30.939Z,83.05
2023-02-21T03:51:05.392Z,83.34
2023-02-21T03:53:37.518Z,84.01
2023-02-21T03:56:06.956Z,83.01
2023-02-21T03:58:56.910Z,83.31
2023-02-21T04:01:24.798Z,84.02
2023-02-21T04:03:54.381Z,82.76
2023-02-21T04:06:22.825Z,84.39
2023-02-21T04:08:52.222Z,84.97
2023-02-21T04:11:22.256Z,83.94
2023-02-21T04:13:52.885Z,83.94
2023-02-21T04:16:20.627Z,83.98
2023-02-21T04:18:51.072Z,84.41
2023-02-21T04:21:20.076Z,82.80
2023-02-21T04:23:49.233Z,83.76
2023-02-21T04:26:20.892Z,83.49
2023-02-21T04:28:52.989Z,83.09
2023-02-21T04:31:21.207Z,82.61
2023-02-21T04:33:54.921Z,83.21
2023-02-21T04:36:30.810Z,83.05
2023-02-21T04:38:58.604Z,83.44
2023-02-21T04:41:26.326Z,83.54
2023-02-21T04:43:54.114Z,82.79
2023-02-21T04:46:21.998Z,81.83
2023-02-21T04:48:52.707Z,82.69
2023-02-21T04:51:24.456Z,83.41
2023-02-21T04:54:39.858Z,82.99
2023-02-21T04:57:07.539Z,83.24
2023-02-21T04:59:35.094Z,82.30
2023-02-21T05:02:03.075Z,84.01
2023-02-21T05:04:30.711Z,83.81
2023-02-21T05:07:01.843Z,82.37
2023-02-21T05:09:29.549Z,81.66
2023-02-21T05:11:57.358Z,82.59
2023-02-21T05:14:25.031Z,82.42
2023-02-21T05:16:52.733Z,82.59
2023-02-21T05:20:47.075Z,81.82
2023-02-21T05:23:17.086Z,82.64
2023-02-21T05:25:45.445Z,83.11
2023-02-21T05:28:13.249Z,83.26
2023-02-21T05:30:41.664Z,82.07
2023-02-21T05:33:11.429Z,81.47
2023-02-21T05:35:39.144Z,82.79
2023-02-21T05:38:06.748Z,82.05
2023-02-21T05:40:34.667Z,82.54
2023-02-21T05:43:02.309Z,81.86
2023-02-21T05:45:30.074Z,83.19
2023-02-21T05:48:00.296Z,83.71
2023-02-21T05:50:29.624Z,83.37
2023-02-21T05:52:59.372Z,82.94
2023-02-21T05:55:27.455Z,82.78
2023-02-21T05:57:55.687Z,83.56
2023-02-21T06:00:28.665Z,84.30
2023-02-21T06:02:57.138Z,83.83
2023-02-21T06:05:25.409Z,83.24
2023-02-21T06:07:53.943Z,83.72
2023-02-21T06:10:21.571Z,83.30
2023-02-21T06:12:49.197Z,82.76
2023-02-21T06:15:16.871Z,82.43
2023-02-21T06:17:45.025Z,82.50
2023-02-21T06:20:16.703Z,83.13
2023-02-21T06:22:44.609Z,82.53
2023-02-21T06:25:12.272Z,82.01
2023-02-21T06:27:39.995Z,82.35
2023-02-21T06:30:08.713Z,83.04
2023-02-21T06:32:36.499Z,83.50
2023-02-21T06:35:04.768Z,84.24
2023-02-21T06:37:32.548Z,84.07
2023-02-21T06:40:00.490Z,84.48
2023-02-21T06:42:29.895Z,84.73
2023-02-21T06:44:57.523Z,85.27
2023-02-21T06:47:25.147Z,86.42
2023-02-21T06:49:52.875Z,88.88
2023-02-21T06:52:21.608Z,89.40
2023-02-21T06:54:52.561Z,90.62
2023-02-21T06:57:20.362Z,90.00
2023-02-21T06:59:47.967Z,91.07
2023-02-21T07:02:19.235Z,92.73
2023-02-21T07:04:49.819Z,91.28
2023-02-21T07:07:28.017Z,90.80
2023-02-21T07:10:06.553Z,92.29
2023-02-21T07:12:40.008Z,92.56
2023-02-21T07:15:13.197Z,92.22
2023-02-21T07:17:41.815Z,93.75
2023-02-21T07:20:13.592Z,94.61
2023-02-21T07:22:41.224Z,92.88
2023-02-21T07:25:08.831Z,93.92
2023-02-21T07:27:38.740Z,94.55
2023-02-21T07:30:07.735Z,94.21
2023-02-21T07:32:35.346Z,94.73
2023-02-21T07:35:04.198Z,95.79
2023-02-21T07:37:32.122Z,94.74
2023-02-21T07:40:00.060Z,94.85
2023-02-21T07:42:27.909Z,95.05
2023-02-21T07:44:59.041Z,94.66
2023-02-21T07:47:27.742Z,95.27
2023-02-21T07:49:55.481Z,96.47
2023-02-21T07:52:23.457Z,94.62
2023-02-21T07:54:51.178Z,94.40
2023-02-21T07:57:19.324Z,94.85
2023-02-21T07:59:50.643Z,93.26
2023-02-21T08:02:39.921Z,94.37
2023-02-21T08:05:09.145Z,93.55
2023-02-21T08:07:36.916Z,92.30
2023-02-21T08:10:05.005Z,91.03
2023-02-21T08:12:32.820Z,93.01
2023-02-21T08:15:00.443Z,93.32
2023-02-21T08:17:28.229Z,94.05
2023-02-21T08:19:55.874Z,94.22
2023-02-21T08:22:23.585Z,92.35
2023-02-21T08:24:51.472Z,93.58
2023-02-21T08:27:19.142Z,93.00
2023-02-21T08:29:51.193Z,93.43
2023-02-21T08:32:19.903Z,93.02
2023-02-21T08:34:51.697Z,92.12
2023-02-21T08:37:22.245Z,91.18
2023-02-21T08:39:57.452Z,91.31
2023-02-21T08:42:31.536Z,93.97
2023-02-21T08:44:59.376Z,92.82
2023-02-21T08:47:27.178Z,93.12
2023-02-21T08:49:55.037Z,93.38
2023-02-21T08:52:22.728Z,93.58
2023-02-21T08:54:50.387Z,89.35
2023-02-21T09:00:39.357Z,85.79
2023-02-21T09:03:08.044Z,86.64
2023-02-21T09:05:37.001Z,89.74
2023-02-21T09:08:05.340Z,92.09
2023-02-21T09:10:38.160Z,92.34
2023-02-21T09:13:09.001Z,92.49
2023-02-21T09:15:36.732Z,90.17
2023-02-21T09:18:04.756Z,89.12
2023-02-21T09:20:32.878Z,88.13
2023-02-21T09:23:00.822Z,90.15
2023-02-21T09:25:29.102Z,90.50
2023-02-21T09:28:00.537Z,90.32
2023-02-21T09:30:29.719Z,88.97
2023-02-21T09:32:58.481Z,91.12
2023-02-21T09:35:29.484Z,90.26
2023-02-21T09:38:03.809Z,90.98
2023-02-21T09:41:03.788Z,90.02
2023-02-21T09:43:39.449Z,90.94
2023-02-21T09:46:14.807Z,95.70
2023-02-21T09:48:44.064Z,94.39
2023-02-21T09:51:14.607Z,92.69
2023-02-21T09:53:46.267Z,92.89
2023-02-21T09:56:21.636Z,92.49
2023-02-21T09:58:49.994Z,93.25
2023-02-21T10:01:56.568Z,93.54
2023-02-21T10:04:33.464Z,93.81
2023-02-21T10:07:10.674Z,95.24
2023-02-21T10:09:52.321Z,95.11
2023-02-21T10:12:45.067Z,95.13
2023-02-21T10:15:44.046Z,95.52
2023-02-21T10:19:23.077Z,94.06
2023-02-21T10:22:08.486Z,94.41
2023-02-21T10:24:53.125Z,92.58
2023-02-21T10:27:36.970Z,91.91
2023-02-21T10:30:11.921Z,90.48
2023-02-21T10:32:40.627Z,87.65
2023-02-21T10:35:12.113Z,87.37
2023-02-21T10:37:51.387Z,84.35
2023-02-21T10:40:38.003Z,82.88
2023-02-21T10:43:17.926Z,82.56
2023-02-21T10:45:58.422Z,82.88
2023-02-21T10:48:43.124Z,83.28
2023-02-21T10:51:15.475Z,83.82
2023-02-21T10:53:47.466Z,81.91
2023-02-21T10:56:15.342Z,82.95
2023-02-21T10:59:06.725Z,81.03
2023-02-21T11:01:45.706Z,81.67
2023-02-21T11:04:28.512Z,77.64
2023-02-21T11:07:11.712Z,79.56
2023-02-21T11:09:42.534Z,77.51
2023-02-21T11:12:16.900Z,78.47
2023-02-21T11:15:15.674Z,78.81
2023-02-21T11:17:45.694Z,80.18
2023-02-21T11:20:23.490Z,77.95
2023-02-21T11:22:51.713Z,78.08
2023-02-21T11:25:32.938Z,78.78
2023-02-21T11:28:13.021Z,78.02
2023-02-21T11:31:15.417Z,77.12
2023-02-21T11:34:00.334Z,76.71
2023-02-21T11:36:38.923Z,78.50
2023-02-21T11:39:18.719Z,77.33
2023-02-21T11:41:57.009Z,79.56
2023-02-21T11:44:42.380Z,76.01
2023-02-21T11:47:29.114Z,75.82
2023-02-21T11:50:25.386Z,74.59
2023-02-21T11:53:00.142Z,75.81
2023-02-21T11:55:28.419Z,74.52
2023-02-21T11:58:26.454Z,73.09
2023-02-21T12:01:07.454Z,71.02
2023-02-21T12:04:06.111Z,72.22
2023-02-21T12:07:17.073Z,69.10
2023-02-21T12:10:38.648Z,71.26
2023-02-21T12:14:01.350Z,69.19
2023-02-21T12:17:15.066Z,68.60
2023-02-21T12:20:00.832Z,67.60
2023-02-21T12:23:23.891Z,66.36
2023-02-21T12:26:32.646Z,66.62
2023-02-21T12:29:52.513Z,67.36
2023-02-21T12:33:03.570Z,69.26
2023-02-21T12:36:17.447Z,68.66
2023-02-21T12:39:02.048Z,68.15
2023-02-21T12:41:58.688Z,72.43
2023-02-21T12:45:22.618Z,76.35
2023-02-21T12:48:27.441Z,74.99
2023-02-21T12:51:25.330Z,75.38
2023-02-21T12:54:07.523Z,73.22
2023-02-21T12:56:53.190Z,73.76
2023-02-21T12:59:55.484Z,73.42
2023-02-21T13:02:46.282Z,74.34
2023-02-21T13:05:26.102Z,71.72
2023-02-21T13:08:14.991Z,71.56
2023-02-21T13:11:00.772Z,71.06
2023-02-21T13:13:35.662Z,74.53
2023-02-21T13:16:18.157Z,73.37
2023-02-21T13:19:02.333Z,70.49
2023-02-21T13:22:46.321Z,73.02
2023-02-21T13:26:16.216Z,76.75
2023-02-21T13:28:45.890Z,81.07
2023-02-21T13:31:39.227Z,81.76
2023-02-21T13:34:19.071Z,79.75
2023-02-21T13:36:49.601Z,77.71
2023-02-21T13:39:32.366Z,72.27
2023-02-21T13:42:16.882Z,71.58
2023-02-21T13:45:20.455Z,73.93
2023-02-21T13:48:01.897Z,76.90
2023-02-21T13:50:39.303Z,79.82
2023-02-21T13:53:33.827Z,83.05
2023-02-21T13:56:07.734Z,81.86
2023-02-21T13:58:38.088Z,83.55
2023-02-21T14:01:44.310Z,84.15
2023-02-21T14:05:09.619Z,82.60
2023-02-21T14:07:47.839Z,83.84
2023-02-21T14:10:44.271Z,83.14
2023-02-21T14:13:52.100Z,83.39
2023-02-21T14:16:36.979Z,83.70
2023-02-21T14:19:22.420Z,83.47
2023-02-21T14:22:03.252Z,84.63
2023-02-21T14:24:38.190Z,85.09
2023-02-21T14:27:37.023Z,82.59
2023-02-21T14:30:11.152Z,81.65
2023-02-21T14:32:44.243Z,79.05
2023-02-21T14:35:24.404Z,77.95
2023-02-21T14:38:03.340Z,76.03
2023-02-21T14:41:05.322Z,76.81
2023-02-21T14:44:01.506Z,77.17
2023-02-21T14:47:12.972Z,76.34
2023-02-21T14:50:21.405Z,76.94
2023-02-21T14:53:36.442Z,77.55
2023-02-21T14:56:16.352Z,76.99
2023-02-21T14:59:25.112Z,79.34
2023-02-21T15:03:03.386Z,84.64
2023-02-21T15:05:42.408Z,86.66
2023-02-21T15:08:22.117Z,85.89
2023-02-21T15:10:56.609Z,82.78
2023-02-21T15:13:34.649Z,79.96
2023-02-21T15:16:12.125Z,82.01
2023-02-21T15:19:04.144Z,78.76
2023-02-21T15:21:51.388Z,76.49
2023-02-21T15:24:20.441Z,74.81
2023-02-21T15:27:13.724Z,74.70
2023-02-21T15:29:41.592Z,73.92
2023-02-21T15:32:30.092Z,75.91
2023-02-21T15:34:58.533Z,77.43
2023-02-21T15:37:39.804Z,78.16
2023-02-21T15:40:25.349Z,79.28
2023-02-21T15:42:56.488Z,80.60
2023-02-21T15:45:32.053Z,82.62
2023-02-21T15:48:01.106Z,83.54
2023-02-21T15:50:45.288Z,85.35
2023-02-21T15:53:22.319Z,82.50
2023-02-21T15:55:52.662Z,82.06
2023-02-21T15:58:27.585Z,82.99
2023-02-21T16:01:11.752Z,83.40
2023-02-21T16:03:46.951Z,83.50
2023-02-21T16:06:25.412Z,85.14
2023-02-21T16:09:04.359Z,85.38
2023-02-21T16:12:04.972Z,83.38
2023-02-21T16:15:05.829Z,81.05
2023-02-21T16:17:37.732Z,80.95
2023-02-21T16:20:19.260Z,82.13
2023-02-21T16:23:07.191Z,83.61
2023-02-21T16:25:35.829Z,82.51
2023-02-21T16:28:13.068Z,83.27
2023-02-21T16:30:41.217Z,85.29
2023-02-21T16:33:13.959Z,83.70
2023-02-21T16:35:42.801Z,82.29
2023-02-21T16:38:18.273Z,83.83
2023-02-21T16:40:49.994Z,87.43
2023-02-21T16:43:24.596Z,86.86
2023-02-21T16:45:57.890Z,87.85
2023-02-21T16:48:33.475Z,85.48
2023-02-21T16:51:14.025Z,82.95
2023-02-21T16:53:42.128Z,77.62
2023-02-21T16:56:09.851Z,76.44
2023-02-21T16:58:48.680Z,77.16
2023-02-21T17:01:33.538Z,78.30
2023-02-21T17:04:05.803Z,74.50
2023-02-21T17:06:34.546Z,76.48
2023-02-21T17:09:02.394Z,76.20
2023-02-21T17:11:32.090Z,76.06
2023-02-21T17:14:00.109Z,80.95
2023-02-21T17:16:30.106Z,79.92
2023-02-21T17:18:57.738Z,80.54
2023-02-21T17:21:25.345Z,78.11
2023-02-21T17:23:54.331Z,78.23
2023-02-21T17:26:22.181Z,74.52
2023-02-21T17:28:50.766Z,72.79
2023-02-21T17:31:19.302Z,70.01
2023-02-21T17:33:47.132Z,72.64
2023-02-21T17:44:00.769Z,69.44
2023-02-21T17:46:43.727Z,68.40
2023-02-21T17:49:20.823Z,69.87
2023-02-21T17:52:45.785Z,67.04
2023-02-21T17:55:26.497Z,65.95
2023-02-21T17:57:54.445Z,66.37
2023-02-21T18:00:28.434Z,66.96
2023-02-21T18:03:15.047Z,67.75
2023-02-21T18:05:42.967Z,68.28
2023-02-21T18:08:10.624Z,71.17
2023-02-21T18:10:48.278Z,68.87
2023-02-21T18:17:36.505Z,75.99
2023-02-21T18:20:25.098Z,75.02
2023-02-21T18:23:39.556Z,72.94
2023-02-21T18:26:59.601Z,73.17
2023-02-21T18:30:55.062Z,73.40
2023-02-21T18:33:27.028Z,72.33
2023-02-21T18:35:56.982Z,72.02
2023-02-21T18:38:25.972Z,70.26
2023-02-21T18:40:56.653Z,70.20
2023-02-21T18:43:36.620Z,70.42
2023-02-21T18:47:08.323Z,72.47
2023-02-21T18:50:03.727Z,69.87
2023-02-21T18:52:38.995Z,68.62
2023-02-21T18:55:27.921Z,71.37
2023-02-21T18:58:02.934Z,71.53
2023-02-21T19:00:33.832Z,71.32
2023-02-21T19:03:12.233Z,74.67
2023-02-21T19:06:03.918Z,76.76
2023-02-21T19:08:36.585Z,76.13
2023-02-21T19:11:10.745Z,75.84
2023-02-21T19:13:49.637Z,71.16
2023-02-21T19:16:27.775Z,71.57
2023-02-21T19:19:00.133Z,68.73
2023-02-21T19:21:29.261Z,66.10
2023-02-21T19:23:57.817Z,68.34
2023-02-21T19:26:30.224Z,70.24
2023-02-21T19:29:40.965Z,71.17
2023-02-21T19:32:24.738Z,70.72
2023-02-21T19:34:54.570Z,70.56
2023-02-21T19:37:28.673Z,71.78
2023-02-21T19:40:24.868Z,73.15
2023-02-21T19:42:58.949Z,70.55
2023-02-21T19:45:35.624Z,68.04
2023-02-21T19:48:03.806Z,66.57
2023-02-21T19:50:34.230Z,67.47
2023-02-21T19:53:06.146Z,68.19
2023-02-21T19:55:34.934Z,71.20
2023-02-21T19:58:07.018Z,68.63
2023-02-21T20:00:41.227Z,66.58
2023-02-21T20:03:20.190Z,70.13
2023-02-21T20:05:49.075Z,72.58
2023-02-21T20:08:16.882Z,69.75
2023-02-21T20:10:44.452Z,64.03
2023-02-21T20:13:18.279Z,62.81
2023-02-21T20:15:58.122Z,59.66
2023-02-21T20:19:00.722Z,59.35
2023-02-21T20:21:31.454Z,59.53
2023-02-21T20:24:00.126Z,59.76
2023-02-21T20:26:31.059Z,65.46
2023-02-21T20:29:01.192Z,67.76
2023-02-21T20:31:39.526Z,71.75
2023-02-21T20:34:30.898Z,75.92
2023-02-21T20:37:01.989Z,71.03
2023-02-21T20:39:49.855Z,69.08
2023-02-21T20:42:22.748Z,63.49
2023-02-21T20:44:53.450Z,61.32
2023-02-21T20:47:23.603Z,63.11
2023-02-21T20:49:51.639Z,60.60
2023-02-21T20:52:19.165Z,63.08
2023-02-21T20:54:50.585Z,63.14
2023-02-21T20:57:26.936Z,65.99
2023-02-21T20:59:55.329Z,64.23
2023-02-21T21:02:24.520Z,63.78
2023-02-21T21:04:54.424Z,64.80
2023-02-21T21:07:24.390Z,68.16
2023-02-21T21:09:54.457Z,69.63
2023-02-21T21:12:26.349Z,68.17
2023-02-21T21:14:59.099Z,65.32
2023-02-21T21:17:31.891Z,64.49
2023-02-21T21:20:17.576Z,66.81
2023-02-21T21:22:48.483Z,64.26
2023-02-21T21:25:17.259Z,63.26
2023-02-21T21:27:45.253Z,62.78
2023-02-21T21:30:18.343Z,64.93
2023-02-21T21:32:46.526Z,70.55
2023-02-21T21:35:17.149Z,67.12
2023-02-21T21:37:44.914Z,64.32
2023-02-21T21:40:16.567Z,61.93
2023-02-21T21:42:49.732Z,62.24
2023-02-21T21:45:25.620Z,63.38
2023-02-21T21:47:59.638Z,60.94
2023-02-21T21:50:30.830Z,62.64
2023-02-21T21:52:59.060Z,60.80
2023-02-21T21:55:29.939Z,61.45
2023-02-21T21:57:58.867Z,59.66
2023-02-21T22:00:29.898Z,59.00
2023-02-21T22:03:01.819Z,60.64
2023-02-21T22:05:31.685Z,59.82
2023-02-21T22:07:59.592Z,58.59
2023-02-21T22:10:28.598Z,59.14
2023-02-21T22:13:00.603Z,59.44
2023-02-21T22:18:51.032Z,58.64
2023-02-21T22:21:23.441Z,57.26
2023-02-21T22:23:56.199Z,57.02
2023-02-21T22:26:25.642Z,56.57
2023-02-21T22:28:54.022Z,58.85
2023-02-21T22:31:27.432Z,57.30
2023-02-21T22:33:59.126Z,56.78
2023-02-21T22:36:31.617Z,56.25
2023-02-21T22:39:09.264Z,56.97
2023-02-21T22:41:37.501Z,57.23
2023-02-21T22:44:05.040Z,55.95
2023-02-21T22:46:49.041Z,54.97
2023-02-21T22:49:16.817Z,54.85
2023-02-21T22:51:44.898Z,55.16
2023-02-21T22:54:14.237Z,55.03
2023-02-21T22:56:51.154Z,54.82
2023-02-21T22:59:24.164Z,54.76
2023-02-21T23:01:54.397Z,54.22
2023-02-21T23:04:28.170Z,53.58
2023-02-21T23:07:00.439Z,54.17
2023-02-21T23:09:30.381Z,53.88
2023-02-21T23:12:00.553Z,53.76
2023-02-21T23:14:31.479Z,53.71
2023-02-21T23:16:59.587Z,53.78
2023-02-21T23:19:29.351Z,53.49
2023-02-21T23:21:57.879Z,54.41
2023-02-21T23:24:26.066Z,53.65
2023-02-21T23:26:54.637Z,53.23
2023-02-21T23:29:26.052Z,53.83
2023-02-21T23:32:09.515Z,53.74
2023-02-21T23:34:41.056Z,53.61
2023-02-21T23:37:12.393Z,54.40
2023-02-21T23:39:41.965Z,53.21
2023-02-21T23:42:11.143Z,54.46
2023-02-21T23:44:39.326Z,52.87
2023-02-21T23:47:07.059Z,53.68
2023-02-21T23:49:34.795Z,53.39
2023-02-21T23:52:02.629Z,52.96
2023-02-21T23:54:30.384Z,52.97
2023-02-21T23:57:00.536Z,53.05
2023-02-21T23:59:29.000Z,53.12
